createdAt,value
2023-01-07T00:01:57.253Z,6.70
2023-01-07T00:07:00.002Z,4.65
2023-01-07T00:27:10.526Z,4.72
2023-01-07T00:32:13.286Z,4.50
2023-01-07T00:42:57.280Z,5.07
2023-01-07T00:48:01.000Z,6.70
2023-01-07T00:53:04.366Z,5.40
2023-01-07T00:58:07.277Z,7.22
2023-01-07T01:03:12.212Z,4.50
2023-01-07T01:08:14.993Z,5.70
2023-01-07T01:13:18.592Z,6.00
2023-01-07T01:18:21.281Z,6.07
2023-01-07T01:23:24.217Z,5.75
2023-01-07T01:28:26.889Z,7.85
2023-01-07T01:33:29.769Z,6.55
2023-01-07T01:38:32.725Z,4.43
2023-01-07T01:48:45.991Z,6.85
2023-01-07T01:53:48.807Z,5.82
2023-01-07T02:04:12.220Z,7.68
2023-01-07T02:09:15.021Z,5.05
2023-01-07T02:14:27.316Z,6.68
2023-01-07T02:19:51.107Z,3.50
2023-01-07T02:25:34.376Z,8.45
2023-01-07T02:30:43.100Z,6.03
2023-01-07T02:36:08.851Z,5.40
2023-01-07T02:41:43.686Z,4.90
2023-01-07T02:47:09.305Z,6.32
2023-01-07T02:52:26.913Z,7.28
2023-01-07T02:57:51.619Z,7.22
2023-01-07T03:03:26.744Z,9.15
2023-01-07T03:08:40.180Z,4.82
2023-01-07T03:13:55.706Z,8.27
2023-01-07T03:19:04.783Z,9.93
2023-01-07T03:24:08.530Z,8.13
2023-01-07T03:29:12.744Z,6.15
2023-01-07T03:34:17.557Z,9.68
2023-01-07T03:39:26.582Z,7.85
2023-01-07T03:44:29.978Z,10.15
2023-01-07T03:49:34.586Z,9.70
2023-01-07T03:54:38.035Z,6.82
2023-01-07T03:59:40.965Z,8.43
2023-01-07T04:04:43.889Z,9.25
2023-01-07T04:14:54.151Z,10.43
2023-01-07T04:19:57.091Z,11.52
2023-01-07T04:25:00.418Z,5.72
2023-01-07T04:30:03.437Z,8.15
2023-01-07T04:35:09.836Z,8.70
2023-01-07T04:40:12.888Z,5.82
2023-01-07T04:45:15.731Z,9.75
2023-01-07T04:50:18.634Z,9.40
2023-01-07T04:55:21.583Z,5.25
2023-01-07T05:00:24.512Z,4.28
2023-01-07T05:05:29.424Z,7.35
2023-01-07T05:10:33.430Z,6.85
2023-01-07T05:15:37.264Z,6.80
2023-01-07T05:25:43.580Z,7.05
2023-01-07T05:30:47.684Z,4.97
2023-01-07T05:35:50.513Z,7.30
2023-01-07T05:40:54.351Z,6.13
2023-01-07T05:46:01.245Z,4.60
2023-01-07T05:51:04.103Z,6.03
2023-01-07T05:56:06.987Z,6.53
2023-01-07T06:01:09.806Z,8.55
2023-01-07T06:06:12.557Z,6.27
2023-01-07T06:11:15.977Z,6.20
2023-01-07T06:16:18.697Z,10.07
2023-01-07T06:21:21.949Z,7.50
2023-01-07T06:26:24.804Z,8.45
2023-01-07T06:31:27.588Z,6.23
2023-01-07T06:36:30.421Z,10.17
2023-01-07T06:41:33.250Z,9.97
2023-01-07T06:46:36.113Z,7.87
2023-01-07T06:51:38.716Z,7.20
2023-01-07T06:56:41.381Z,7.22
2023-01-07T07:01:46.994Z,7.10
2023-01-07T07:06:49.744Z,7.47
2023-01-07T07:11:52.441Z,6.53
2023-01-07T07:16:55.113Z,10.07
2023-01-07T07:21:57.839Z,7.25
2023-01-07T07:27:00.639Z,7.05
2023-01-07T07:32:03.657Z,10.07
2023-01-07T07:37:06.480Z,9.63
2023-01-07T07:42:09.408Z,9.07
2023-01-07T07:47:12.805Z,6.25
2023-01-07T07:52:15.506Z,7.95
2023-01-07T07:57:18.205Z,8.05
2023-01-07T08:02:21.088Z,9.15
2023-01-07T08:07:32.031Z,8.68
2023-01-07T08:12:39.245Z,7.85
2023-01-07T08:17:42.053Z,9.93
2023-01-07T08:22:44.821Z,9.55
2023-01-07T08:27:47.432Z,8.82
2023-01-07T08:32:50.203Z,9.68
2023-01-07T08:37:52.928Z,12.90
2023-01-07T08:43:01.750Z,9.65
2023-01-07T08:48:05.264Z,9.07
2023-01-07T08:53:07.921Z,9.32
2023-01-07T08:58:10.574Z,8.60
2023-01-07T09:03:13.356Z,8.48
2023-01-07T09:08:16.022Z,9.07
2023-01-07T09:13:18.752Z,9.02
2023-01-07T09:18:21.922Z,8.40
2023-01-07T09:23:24.641Z,8.83
2023-01-07T09:28:27.307Z,9.32
2023-01-07T09:33:30.058Z,7.65
2023-01-07T09:38:33.425Z,7.15
2023-01-07T09:43:59.836Z,7.73
2023-01-07T09:49:04.439Z,8.10
2023-01-07T09:54:41.044Z,8.20
2023-01-07T09:59:46.961Z,7.13
2023-01-07T10:04:52.687Z,7.80
2023-01-07T10:10:12.010Z,9.02
2023-01-07T10:15:43.209Z,7.45
2023-01-07T10:21:09.116Z,7.70
2023-01-07T10:26:22.607Z,8.48
2023-01-07T10:31:26.737Z,8.25
2023-01-07T10:41:41.657Z,5.40
2023-01-07T10:47:02.650Z,8.73
2023-01-07T10:52:27.259Z,8.27
2023-01-07T10:57:34.041Z,10.02
2023-01-07T11:02:39.559Z,11.07
2023-01-07T11:07:48.650Z,9.68
2023-01-07T11:12:57.936Z,7.07
2023-01-07T11:18:03.866Z,11.13
2023-01-07T11:23:25.146Z,7.75
2023-01-07T11:28:30.568Z,8.90
2023-01-07T11:34:02.009Z,8.52
2023-01-07T11:39:17.120Z,7.93
2023-01-07T11:44:20.039Z,7.88
2023-01-07T11:49:30.911Z,9.48
2023-01-07T11:54:33.580Z,9.77
2023-01-07T11:59:36.408Z,10.57
2023-01-07T12:04:40.666Z,10.07
2023-01-07T12:14:47.917Z,8.90
2023-01-07T12:20:27.523Z,10.60
2023-01-07T12:25:48.573Z,8.48
2023-01-07T12:31:10.230Z,12.93
2023-01-07T12:36:39.487Z,13.48
2023-01-07T12:41:45.340Z,12.15
2023-01-07T12:47:31.355Z,12.43
2023-01-07T12:52:32.017Z,15.45
2023-01-07T12:57:39.669Z,10.57
2023-01-07T13:03:01.071Z,10.23
2023-01-07T13:08:28.933Z,15.45
2023-01-07T13:13:35.188Z,12.00
2023-01-07T13:18:38.045Z,11.13
2023-01-07T13:24:19.043Z,11.40
2023-01-07T13:29:31.517Z,11.90
2023-01-07T13:34:38.511Z,12.35
2023-01-07T13:40:02.695Z,13.93
2023-01-07T13:45:13.871Z,11.52
2023-01-07T13:50:24.159Z,13.35
2023-01-07T13:55:37.393Z,10.50
2023-01-07T14:01:02.671Z,14.77
2023-01-07T14:06:20.902Z,12.15
2023-01-07T14:11:55.515Z,14.05
2023-01-07T14:17:32.704Z,10.50
2023-01-07T14:22:50.284Z,13.50
2023-01-07T14:28:20.923Z,11.55
2023-01-07T14:33:25.448Z,14.68
2023-01-07T14:38:34.059Z,12.57
2023-01-07T14:43:45.487Z,11.82
2023-01-07T14:49:03.578Z,15.23
2023-01-07T14:54:28.690Z,10.98
2023-01-07T14:59:52.791Z,12.57
2023-01-07T15:05:14.120Z,12.52
2023-01-07T15:10:42.057Z,11.77
2023-01-07T15:16:02.656Z,13.25
2023-01-07T15:21:08.580Z,9.48
2023-01-07T15:26:21.600Z,12.73
2023-01-07T15:31:40.583Z,11.80
2023-01-07T15:36:48.999Z,13.95
2023-01-07T15:41:55.857Z,12.77
2023-01-07T15:46:58.657Z,15.73
2023-01-07T15:52:02.383Z,15.20
2023-01-07T15:57:10.824Z,13.87
2023-01-07T16:02:42.877Z,11.95
2023-01-07T16:07:48.562Z,18.25
2023-01-07T16:12:56.735Z,18.05
2023-01-07T16:18:04.948Z,11.10
2023-01-07T16:23:10.520Z,13.38
2023-01-07T16:28:30.388Z,14.98
2023-01-07T16:33:34.493Z,12.05
2023-01-07T16:38:38.094Z,11.70
2023-01-07T16:43:40.922Z,13.52
2023-01-07T16:48:44.055Z,11.25
2023-01-07T16:53:46.785Z,16.13
2023-01-07T16:58:53.195Z,16.60
2023-01-07T17:04:02.310Z,14.02
2023-01-07T17:09:05.369Z,9.40
2023-01-07T17:14:44.420Z,17.00
2023-01-07T17:19:54.756Z,14.23
2023-01-07T17:25:16.959Z,13.65
2023-01-07T17:30:21.621Z,12.27
2023-01-07T17:40:27.520Z,14.65
2023-01-07T17:45:30.460Z,15.35
2023-01-07T17:50:37.148Z,14.32
2023-01-07T17:55:39.848Z,10.75
2023-01-07T18:00:42.941Z,11.23
2023-01-07T18:05:45.785Z,13.05
2023-01-07T18:11:08.157Z,10.70
2023-01-07T18:16:12.910Z,13.30
2023-01-07T18:21:15.773Z,14.43
2023-01-07T18:26:19.408Z,14.73
2023-01-07T18:31:22.208Z,13.23
2023-01-07T18:36:24.973Z,13.82
2023-01-07T18:41:27.733Z,11.35
2023-01-07T18:46:30.484Z,13.57
2023-01-07T18:51:33.187Z,13.95
2023-01-07T18:56:35.929Z,14.00
2023-01-07T19:01:38.783Z,13.43
2023-01-07T19:06:41.559Z,13.25
2023-01-07T19:11:44.212Z,10.65
2023-01-07T19:16:46.983Z,13.43
2023-01-07T19:21:50.795Z,13.95
2023-01-07T19:26:53.456Z,12.75
2023-01-07T19:31:56.193Z,11.85
2023-01-07T19:36:58.880Z,9.90
2023-01-07T19:42:01.738Z,12.27
2023-01-07T19:47:04.527Z,12.18
2023-01-07T19:52:07.198Z,10.52
2023-01-07T19:57:10.104Z,10.35
2023-01-07T20:02:14.730Z,9.68
2023-01-07T20:12:20.110Z,8.98
2023-01-07T20:17:22.823Z,11.13
2023-01-07T20:22:25.509Z,12.15
2023-01-07T20:27:28.222Z,10.18
2023-01-07T20:32:30.869Z,10.88
2023-01-07T20:37:35.048Z,9.95
2023-01-07T20:42:37.894Z,9.83
2023-01-07T20:47:40.734Z,8.52
2023-01-07T20:52:43.401Z,11.10
2023-01-07T20:57:46.098Z,11.05
2023-01-07T21:02:48.861Z,12.07
2023-01-07T21:07:51.888Z,9.68
2023-01-07T21:12:54.617Z,9.20
2023-01-07T21:17:57.350Z,9.45
2023-01-07T21:23:00.126Z,10.32
2023-01-07T21:28:03.582Z,9.13
2023-01-07T21:33:06.393Z,8.95
2023-01-07T21:38:09.035Z,10.32
2023-01-07T21:43:11.833Z,8.27
2023-01-07T21:48:14.705Z,7.85
2023-01-07T21:53:18.952Z,7.40
2023-01-07T21:58:21.701Z,8.30
2023-01-07T22:03:24.540Z,8.25
2023-01-07T22:08:27.514Z,8.00
2023-01-07T22:13:30.248Z,7.10
2023-01-07T22:18:32.907Z,6.82
2023-01-07T22:23:37.371Z,6.22
2023-01-07T22:28:40.889Z,5.60
2023-01-07T22:33:43.486Z,9.00
2023-01-07T22:38:46.204Z,8.80
2023-01-07T22:43:49.180Z,9.05
2023-01-07T22:48:52.148Z,7.50
2023-01-07T22:53:56.081Z,8.13
2023-01-07T22:58:58.809Z,6.40
2023-01-07T23:04:01.716Z,6.75
2023-01-07T23:09:05.153Z,8.43
2023-01-07T23:14:08.160Z,7.22
2023-01-07T23:19:10.888Z,7.95
2023-01-07T23:24:14.422Z,6.72
2023-01-07T23:29:18.147Z,8.88
2023-01-07T23:34:20.914Z,7.93
2023-01-07T23:39:23.548Z,8.90
2023-01-07T23:44:26.217Z,8.05
2023-01-07T23:49:28.959Z,8.95
2023-01-07T23:54:31.551Z,8.95
2023-01-07T23:59:34.322Z,7.13
